Time;durP1;ratioP1;P1;durP2;ratioP2;P2;SDS_P1;SDS_P2;PMS_P1;PMS_P2;Temp;Humidity;BMP_temperature;BMP_pressure;BME280_temperature;BME280_humidity;BME280_pressure;Samples;Min_cycle;Max_cycle;Signal;HPM_P1;HPM_P2
2021/03/17 00:02:24;;;;;;;4.37;1.20;;;1.00;99.90;;;;;;4986870;28;20218;-50
2021/03/17 00:05:08;;;;;;;6.13;1.13;;;1.00;99.90;;;;;;4985851;28;21143;-52
2021/03/17 00:07:53;;;;;;;3.40;1.10;;;0.90;99.90;;;;;;4997093;28;20941;-55
2021/03/17 00:10:40;;;;;;;3.47;1.03;;;0.90;99.90;;;;;;4989811;28;20290;-56
2021/03/17 00:13:26;;;;;;;3.10;0.93;;;0.80;99.90;;;;;;4993924;28;20199;-56
2021/03/17 00:16:10;;;;;;;3.73;0.90;;;0.80;99.90;;;;;;5000396;28;20202;-54
2021/03/17 00:18:55;;;;;;;6.67;1.30;;;0.80;99.90;;;;;;4984432;28;20250;-54
2021/03/17 00:21:39;;;;;;;7.10;1.20;;;0.90;99.90;;;;;;4983473;28;20323;-55
2021/03/17 00:24:23;;;;;;;1.93;0.90;;;0.90;99.90;;;;;;4992747;28;20187;-52
2021/03/17 00:27:08;;;;;;;3.70;0.90;;;0.90;99.90;;;;;;5002243;28;20206;-51
2021/03/17 00:29:52;;;;;;;7.33;1.17;;;1.00;99.90;;;;;;4983946;28;20243;-54
2021/03/17 00:32:36;;;;;;;3.70;1.40;;;1.00;99.90;;;;;;4982651;28;20611;-55
2021/03/17 00:35:20;;;;;;;5.30;1.00;;;1.10;99.90;;;;;;4985920;28;20247;-54
2021/03/17 00:38:05;;;;;;;4.80;1.10;;;1.10;99.90;;;;;;4995573;28;20291;-54
2021/03/17 00:40:50;;;;;;;8.77;1.07;;;1.20;99.90;;;;;;4989145;28;20550;-54
2021/03/17 00:43:33;;;;;;;8.87;1.30;;;1.20;99.90;;;;;;4991114;28;20714;-55
2021/03/17 00:46:18;;;;;;;6.40;1.30;;;1.20;99.90;;;;;;4986047;28;20221;-55
2021/03/17 00:48:45;;;;;;;4.93;1.00;;;1.20;99.90;;;;;;4983657;28;20799;-55
2021/03/17 00:51:21;;;;;;;3.80;1.43;;;1.10;99.90;;;;;;4994318;28;20182;-56
2021/03/17 00:54:05;;;;;;;4.57;1.50;;;1.00;99.90;;;;;;5007931;28;20226;-56
2021/03/17 00:56:31;;;;;;;5.90;1.20;;;0.90;99.90;;;;;;4983884;28;20226;-58
2021/03/17 00:58:56;;;;;;;3.60;1.13;;;0.80;99.90;;;;;;4991177;28;20192;-55
2021/03/17 01:01:22;;;;;;;3.17;1.20;;;0.70;99.90;;;;;;4984994;28;20262;-56
2021/03/17 01:03:48;;;;;;;2.97;0.97;;;0.70;99.90;;;;;;4983080;28;20176;-54
2021/03/17 01:06:13;;;;;;;4.60;1.20;;;0.60;99.90;;;;;;4985581;28;20199;-55
2021/03/17 01:08:39;;;;;;;4.60;1.20;;;0.50;99.90;;;;;;4993705;28;20188;-57
2021/03/17 01:11:04;;;;;;;4.40;0.93;;;0.40;99.90;;;;;;5014844;28;20190;-54
2021/03/17 01:13:30;;;;;;;4.13;1.63;;;0.40;99.90;;;;;;4998008;28;20709;-55
2021/03/17 01:15:55;;;;;;;5.87;1.40;;;0.30;99.90;;;;;;5003624;28;20181;-54
2021/03/17 01:18:21;;;;;;;6.70;1.60;;;0.30;99.90;;;;;;5004101;28;20207;-59
2021/03/17 01:20:47;;;;;;;1.37;1.10;;;0.20;99.90;;;;;;5001859;28;20171;-54
2021/03/17 01:23:12;;;;;;;2.97;1.27;;;0.20;99.90;;;;;;5004681;28;20174;-49
2021/03/17 01:25:42;;;;;;;4.10;0.90;;;0.20;99.90;;;;;;4996983;28;20184;-50
2021/03/17 01:28:09;;;;;;;1.97;1.40;;;0.10;99.90;;;;;;4982894;28;20243;-54
2021/03/17 01:30:47;;;;;;;5.83;1.60;;;0.10;99.90;;;;;;4987152;28;20539;-57
2021/03/17 01:33:14;;;;;;;10.90;1.57;;;0.10;99.90;;;;;;4985315;28;20184;-51
2021/03/17 01:35:41;;;;;;;1.63;1.10;;;0.00;99.90;;;;;;4981407;28;20177;-51
2021/03/17 01:38:07;;;;;;;7.80;1.63;;;0.10;99.90;;;;;;4985051;28;20230;-56
2021/03/17 01:40:36;;;;;;;7.93;1.20;;;0.00;99.90;;;;;;4987084;28;20197;-57
2021/03/17 01:43:02;;;;;;;2.53;2.13;;;0.10;99.90;;;;;;4999428;28;20188;-55
2021/03/17 01:45:28;;;;;;;5.23;1.17;;;0.10;99.90;;;;;;5008271;28;20689;-57
2021/03/17 01:47:53;;;;;;;4.03;1.70;;;0.10;99.90;;;;;;5007464;28;20197;-54
2021/03/17 01:50:25;;;;;;;4.33;1.27;;;0.00;99.90;;;;;;5009393;28;20273;-57
2021/03/17 01:52:52;;;;;;;3.53;1.50;;;0.00;99.90;;;;;;5005976;28;20217;-54
2021/03/17 01:55:18;;;;;;;2.33;1.33;;;0.00;99.90;;;;;;4984722;28;20615;-55
2021/03/17 01:57:44;;;;;;;5.23;1.47;;;0.00;99.90;;;;;;4986189;28;20312;-55
2021/03/17 02:00:13;;;;;;;5.80;1.70;;;0.00;99.90;;;;;;4993172;28;20206;-55
2021/03/17 02:02:40;;;;;;;5.57;1.77;;;-0.10;99.90;;;;;;4980864;28;20177;-55
2021/03/17 02:05:10;;;;;;;9.73;1.73;;;-0.10;99.90;;;;;;4984630;28;20661;-54
2021/03/17 02:07:36;;;;;;;2.27;1.10;;;-0.10;99.90;;;;;;4980748;28;20210;-54
2021/03/17 02:10:07;;;;;;;9.67;1.60;;;-0.20;99.90;;;;;;4985090;28;20182;-52
2021/03/17 02:12:44;;;;;;;3.87;1.40;;;-0.20;99.90;;;;;;4991714;28;20198;-55
2021/03/17 02:15:32;;;;;;;1.90;1.10;;;-0.20;99.90;;;;;;5003398;28;20192;-53
2021/03/17 02:18:07;;;;;;;4.23;2.17;;;-0.30;99.90;;;;;;5002757;28;20212;-53
2021/03/17 02:20:59;;;;;;;3.23;1.50;;;-0.30;99.90;;;;;;4995948;28;20340;-54
2021/03/17 02:23:44;;;;;;;2.00;1.13;;;-0.40;99.90;;;;;;4994761;28;20189;-55
2021/03/17 02:26:35;;;;;;;2.90;1.50;;;-0.40;99.90;;;;;;4999119;28;20231;-53
2021/03/17 02:29:25;;;;;;;1.60;1.30;;;-0.40;99.90;;;;;;4998062;28;20187;-54
2021/03/17 02:32:14;;;;;;;4.53;1.60;;;-0.40;99.90;;;;;;5002623;28;20231;-50
2021/03/17 02:34:46;;;;;;;5.97;1.53;;;-0.40;99.90;;;;;;4999982;28;20203;-50
2021/03/17 02:37:22;;;;;;;6.73;1.70;;;-0.30;99.90;;;;;;5003611;28;20617;-56
2021/03/17 02:40:09;;;;;;;6.00;1.50;;;-0.30;99.90;;;;;;5000877;28;20403;-50
2021/03/17 02:42:47;;;;;;;5.23;1.37;;;-0.30;99.90;;;;;;4997240;28;20289;-55
2021/03/17 02:45:17;;;;;;;5.70;1.40;;;-0.30;99.90;;;;;;4989749;28;20197;-54
2021/03/17 02:48:03;;;;;;;3.20;1.13;;;-0.30;99.90;;;;;;4995501;28;20262;-51
2021/03/17 02:50:32;;;;;;;3.83;1.47;;;-0.20;99.90;;;;;;5002334;28;20255;-54
2021/03/17 02:53:00;;;;;;;5.23;1.27;;;-0.20;99.90;;;;;;4994409;28;20190;-53
2021/03/17 02:55:31;;;;;;;4.30;1.30;;;-0.30;99.90;;;;;;4992001;28;20256;-54
2021/03/17 02:57:59;;;;;;;3.37;1.17;;;-0.20;99.90;;;;;;4992573;28;20217;-56
2021/03/17 03:00:27;;;;;;;9.47;1.70;;;-0.20;99.90;;;;;;4991666;28;20181;-53
2021/03/17 03:02:53;;;;;;;4.33;1.37;;;-0.20;99.90;;;;;;4991916;28;20232;-55
2021/03/17 03:05:19;;;;;;;4.03;1.50;;;-0.20;99.90;;;;;;4980417;28;20185;-52
2021/03/17 03:07:48;;;;;;;4.53;1.53;;;-0.20;99.90;;;;;;4984188;28;20677;-50
2021/03/17 03:10:16;;;;;;;4.73;1.70;;;-0.30;99.90;;;;;;4978470;28;20232;-50
2021/03/17 03:12:42;;;;;;;4.67;1.60;;;-0.20;99.90;;;;;;4984218;28;20169;-51
2021/03/17 03:15:10;;;;;;;2.00;1.20;;;-0.20;99.90;;;;;;4983515;28;20276;-58
2021/03/17 03:17:37;;;;;;;4.13;1.40;;;-0.10;99.90;;;;;;4993042;28;20264;-55
2021/03/17 03:20:07;;;;;;;2.57;1.20;;;-0.10;99.90;;;;;;4983436;28;20535;-53
2021/03/17 03:22:33;;;;;;;5.87;1.50;;;-0.20;99.90;;;;;;4996232;28;20196;-55
2021/03/17 03:25:00;;;;;;;3.33;1.43;;;-0.20;99.90;;;;;;4992529;28;20178;-56
2021/03/17 03:27:26;;;;;;;6.23;1.50;;;-0.20;99.90;;;;;;4981380;28;20181;-49
2021/03/17 03:29:54;;;;;;;8.63;1.73;;;-0.10;99.90;;;;;;4989398;28;20222;-51
2021/03/17 03:32:20;;;;;;;3.17;1.13;;;-0.20;99.90;;;;;;4986651;28;20201;-51
2021/03/17 03:34:45;;;;;;;4.77;1.50;;;-0.30;99.90;;;;;;4991413;28;20287;-53
2021/03/17 03:37:13;;;;;;;7.83;1.50;;;-0.30;99.90;;;;;;4983998;28;20200;-56
2021/03/17 03:39:38;;;;;;;10.17;1.60;;;-0.40;99.90;;;;;;4987164;28;20209;-49
2021/03/17 03:42:04;;;;;;;2.90;1.70;;;-0.40;99.90;;;;;;4985200;28;20233;-56
2021/03/17 03:44:30;;;;;;;7.93;1.70;;;-0.40;99.90;;;;;;4986946;28;20659;-49
2021/03/17 03:46:56;;;;;;;6.47;1.23;;;-0.40;99.90;;;;;;4995113;28;20205;-55
2021/03/17 03:49:23;;;;;;;10.83;1.80;;;-0.30;99.90;;;;;;4991966;28;20180;-54
2021/03/17 03:52:10;;;;;;;11.07;2.00;;;-0.30;99.90;;;;;;4994385;28;20188;-49
2021/03/17 03:54:42;;;;;;;6.07;1.57;;;-0.30;99.90;;;;;;4998384;28;20189;-49
2021/03/17 03:57:14;;;;;;;3.47;1.67;;;-0.40;99.90;;;;;;5003667;28;20209;-56
2021/03/17 03:59:47;;;;;;;6.17;1.60;;;-0.40;99.90;;;;;;5002674;28;20642;-53
2021/03/17 04:02:21;;;;;;;2.43;1.37;;;-0.40;99.90;;;;;;4989349;28;20535;-56
2021/03/17 04:04:48;;;;;;;4.53;1.33;;;-0.40;99.90;;;;;;4992485;28;20175;-52
2021/03/17 04:07:16;;;;;;;2.90;1.63;;;-0.40;99.90;;;;;;4983448;28;20198;-49
2021/03/17 04:09:49;;;;;;;4.03;1.50;;;-0.40;99.90;;;;;;4986904;28;20182;-55
2021/03/17 04:12:18;;;;;;;6.87;1.60;;;-0.40;99.90;;;;;;4986602;28;20380;-54
2021/03/17 04:14:48;;;;;;;5.93;1.70;;;-0.40;99.90;;;;;;4995735;28;20693;-51
2021/03/17 04:17:22;;;;;;;9.23;1.80;;;-0.50;99.90;;;;;;4991854;28;20309;-54
2021/03/17 04:19:52;;;;;;;4.87;2.23;;;-0.50;99.90;;;;;;4998432;28;20210;-51
2021/03/17 04:22:20;;;;;;;6.87;1.77;;;-0.50;99.90;;;;;;4986552;28;20177;-53
2021/03/17 04:24:48;;;;;;;8.03;1.60;;;-0.50;99.90;;;;;;4989126;28;20351;-53
2021/03/17 04:27:14;;;;;;;5.07;1.67;;;-0.50;99.90;;;;;;4993284;28;20206;-55
2021/03/17 04:29:41;;;;;;;6.53;1.73;;;-0.60;99.90;;;;;;4979597;28;20184;-54
2021/03/17 04:32:08;;;;;;;3.80;1.93;;;-0.60;99.90;;;;;;5005674;28;20288;-52
2021/03/17 04:34:34;;;;;;;3.47;1.40;;;-0.60;99.90;;;;;;4983403;28;20281;-58
2021/03/17 04:37:01;;;;;;;5.97;1.80;;;-0.70;99.90;;;;;;5006057;28;20229;-52
2021/03/17 04:39:28;;;;;;;7.53;1.80;;;-0.70;99.90;;;;;;5010197;28;20263;-57
2021/03/17 04:41:56;;;;;;;6.07;1.90;;;-0.80;99.90;;;;;;5007880;28;20348;-51
2021/03/17 04:44:22;;;;;;;10.63;2.57;;;-0.80;99.90;;;;;;5005479;28;20268;-53
2021/03/17 04:46:49;;;;;;;3.03;1.50;;;-0.80;99.90;;;;;;5000381;28;20303;-51
2021/03/17 04:49:17;;;;;;;5.83;2.07;;;-0.80;99.90;;;;;;5001909;28;20193;-56
2021/03/17 04:51:44;;;;;;;4.53;1.77;;;-0.80;99.90;;;;;;5007023;28;20231;-56
2021/03/17 04:54:10;;;;;;;3.90;1.80;;;-0.80;99.90;;;;;;5011747;28;20228;-56
2021/03/17 04:56:38;;;;;;;4.27;1.90;;;-0.80;99.90;;;;;;5007801;28;20267;-56
2021/03/17 04:59:06;;;;;;;7.50;2.10;;;-0.90;99.90;;;;;;5006124;28;20205;-52
2021/03/17 05:01:35;;;;;;;4.47;2.50;;;-0.90;99.90;;;;;;4997151;28;20189;-55
2021/03/17 05:04:02;;;;;;;8.00;3.17;;;-0.90;99.90;;;;;;4991372;28;20202;-54
2021/03/17 05:06:31;;;;;;;4.20;2.13;;;-0.90;99.90;;;;;;4992149;28;20236;-55
2021/03/17 05:08:58;;;;;;;4.13;1.73;;;-0.90;99.90;;;;;;5001464;28;20194;-51
2021/03/17 05:11:24;;;;;;;5.03;1.73;;;-0.90;99.90;;;;;;5004929;28;20664;-56
2021/03/17 05:13:50;;;;;;;4.07;1.87;;;-0.90;99.90;;;;;;5001066;28;20170;-55
2021/03/17 05:16:17;;;;;;;4.80;2.00;;;-0.90;99.90;;;;;;5002136;28;20215;-52
2021/03/17 05:18:44;;;;;;;9.77;2.10;;;-0.90;99.90;;;;;;4987368;28;20216;-53
2021/03/17 05:21:10;;;;;;;6.63;1.73;;;-0.90;99.90;;;;;;4996214;28;20620;-53
2021/03/17 05:23:39;;;;;;;6.67;1.87;;;-1.00;99.90;;;;;;4997011;28;20235;-54
2021/03/17 05:26:06;;;;;;;9.97;2.07;;;-1.10;99.90;;;;;;4986632;28;20654;-51
2021/03/17 05:28:34;;;;;;;5.07;1.97;;;-1.10;99.90;;;;;;4984012;28;20253;-57
2021/03/17 05:31:00;;;;;;;6.40;1.90;;;-1.10;99.90;;;;;;4989785;28;20170;-55
2021/03/17 05:33:27;;;;;;;4.30;1.70;;;-1.10;99.90;;;;;;5002964;28;20192;-55
2021/03/17 05:35:54;;;;;;;4.00;2.07;;;-1.10;99.90;;;;;;4998730;28;20184;-56
2021/03/17 05:38:20;;;;;;;2.60;1.70;;;-1.00;99.90;;;;;;4999347;28;20296;-51
2021/03/17 05:40:45;;;;;;;7.80;2.20;;;-1.00;99.90;;;;;;5003621;28;20256;-50
2021/03/17 05:43:11;;;;;;;7.17;2.30;;;-1.00;99.90;;;;;;5004659;28;20176;-54
2021/03/17 05:45:38;;;;;;;9.53;2.27;;;-1.00;99.90;;;;;;5001365;28;20197;-59
2021/03/17 05:48:05;;;;;;;5.33;2.27;;;-1.10;99.90;;;;;;4990245;28;20222;-55
2021/03/17 05:50:32;;;;;;;3.13;2.40;;;-1.00;99.90;;;;;;4984092;28;20185;-57
2021/03/17 05:52:57;;;;;;;5.77;1.93;;;-1.10;99.90;;;;;;5002957;28;20193;-53
2021/03/17 05:55:23;;;;;;;7.17;2.20;;;-1.10;99.90;;;;;;4998472;28;20752;-54
2021/03/17 05:57:50;;;;;;;6.80;2.93;;;-1.10;99.90;;;;;;5007041;28;20347;-54
2021/03/17 06:00:23;;;;;;;4.87;2.50;;;-1.10;99.90;;;;;;5006644;28;20276;-50
2021/03/17 06:02:49;;;;;;;5.80;2.70;;;-1.10;99.90;;;;;;4997287;28;20785;-48
2021/03/17 06:05:18;;;;;;;9.67;2.30;;;-1.00;99.90;;;;;;4996707;28;20181;-51
2021/03/17 06:08:17;;;;;;;5.40;2.40;;;-1.00;99.90;;;;;;4989742;28;20775;-49
2021/03/17 06:10:44;;;;;;;6.97;2.47;;;-1.00;99.90;;;;;;4994836;28;20200;-51
2021/03/17 06:13:12;;;;;;;4.43;2.23;;;-1.00;99.90;;;;;;4995591;28;20485;-51
2021/03/17 06:15:41;;;;;;;4.83;2.13;;;-0.90;99.90;;;;;;5003929;28;20173;-51
2021/03/17 06:18:21;;;;;;;7.13;2.03;;;-1.00;99.90;;;;;;4993430;28;20628;-58
2021/03/17 06:20:47;;;;;;;6.60;2.80;;;-1.00;99.90;;;;;;4984363;28;20236;-49
2021/03/17 06:23:13;;;;;;;5.33;2.93;;;-0.90;99.90;;;;;;4984510;28;20181;-52
2021/03/17 06:25:43;;;;;;;6.43;2.23;;;-0.90;99.90;;;;;;4990257;28;20276;-52
2021/03/17 06:28:09;;;;;;;4.77;2.70;;;-0.90;99.90;;;;;;4995872;28;20287;-55
2021/03/17 06:30:35;;;;;;;9.37;3.00;;;-0.90;99.90;;;;;;4984172;28;20204;-51
2021/03/17 06:33:01;;;;;;;7.40;2.67;;;-0.90;99.90;;;;;;4981118;28;20182;-57
2021/03/17 06:35:27;;;;;;;10.27;3.40;;;-0.80;99.90;;;;;;4995474;28;20770;-55
2021/03/17 06:37:53;;;;;;;4.77;3.00;;;-0.80;99.90;;;;;;4984015;28;20249;-57
2021/03/17 06:40:29;;;;;;;6.60;2.73;;;-0.70;99.90;;;;;;4997129;28;20236;-54
2021/03/17 06:43:03;;;;;;;7.67;3.00;;;-0.70;99.90;;;;;;5001257;28;20260;-54
2021/03/17 06:45:30;;;;;;;6.43;2.40;;;-0.60;99.90;;;;;;5002783;28;20423;-56
2021/03/17 06:47:56;;;;;;;4.33;2.93;;;-0.60;99.90;;;;;;5002313;28;20262;-55
2021/03/17 06:50:28;;;;;;;5.37;2.50;;;-0.60;99.90;;;;;;4987648;28;20189;-56
2021/03/17 06:52:54;;;;;;;4.13;2.80;;;-0.60;99.90;;;;;;4994557;28;20209;-52
2021/03/17 06:55:22;;;;;;;9.33;2.43;;;-0.50;99.90;;;;;;4997813;28;20184;-54
2021/03/17 06:57:49;;;;;;;6.93;2.90;;;-0.40;99.90;;;;;;4990415;28;20220;-52
2021/03/17 07:00:27;;;;;;;7.23;3.03;;;-0.40;99.90;;;;;;4996510;28;20201;-53
2021/03/17 07:03:03;;;;;;;7.93;3.00;;;-0.30;99.90;;;;;;4998340;28;20806;-54
2021/03/17 07:05:44;;;;;;;3.37;2.27;;;-0.30;99.90;;;;;;4997582;28;20265;-54
2021/03/17 07:08:12;;;;;;;9.23;3.03;;;-0.20;99.90;;;;;;4995463;28;20222;-55
2021/03/17 07:10:43;;;;;;;9.60;3.07;;;-0.10;99.90;;;;;;4994626;28;20462;-51
2021/03/17 07:13:12;;;;;;;5.10;2.70;;;0.00;99.90;;;;;;4996704;28;20706;-55
2021/03/17 07:15:38;;;;;;;7.60;2.97;;;0.10;99.90;;;;;;4998648;28;20354;-54
2021/03/17 07:18:24;;;;;;;5.23;3.13;;;0.20;99.90;;;;;;4991838;28;20585;-55
2021/03/17 07:21:00;;;;;;;4.93;3.10;;;0.30;99.90;;;;;;5004978;28;20203;-56
2021/03/17 07:23:40;;;;;;;10.33;3.33;;;0.40;99.90;;;;;;4990387;28;20172;-55
2021/03/17 07:26:23;;;;;;;6.20;2.93;;;0.50;99.90;;;;;;5009064;28;20595;-57
2021/03/17 07:29:12;;;;;;;3.97;3.00;;;0.60;99.90;;;;;;4990504;28;20276;-50
2021/03/17 07:31:42;;;;;;;8.40;3.20;;;0.70;99.90;;;;;;4992095;28;20181;-49
2021/03/17 07:34:14;;;;;;;11.53;3.23;;;0.80;99.90;;;;;;5004295;28;20200;-55
2021/03/17 07:37:01;;;;;;;11.67;3.40;;;0.90;99.90;;;;;;4999691;28;20311;-57
2021/03/17 07:39:29;;;;;;;13.20;3.63;;;1.00;99.90;;;;;;4985808;28;20229;-55
2021/03/17 07:41:56;;;;;;;7.17;3.03;;;1.10;99.90;;;;;;4996348;28;20189;-54
2021/03/17 07:44:23;;;;;;;10.33;3.70;;;1.20;99.90;;;;;;5001938;28;20597;-55
2021/03/17 07:46:58;;;;;;;7.33;3.27;;;1.30;99.90;;;;;;5001372;28;20308;-55
2021/03/17 07:49:25;;;;;;;6.03;3.00;;;1.40;99.90;;;;;;5000196;28;20702;-55
2021/03/17 07:52:02;;;;;;;13.90;3.13;;;1.50;99.90;;;;;;4995160;28;20206;-54
2021/03/17 07:54:32;;;;;;;7.53;3.30;;;1.50;99.90;;;;;;4997732;28;20216;-58
2021/03/17 07:57:00;;;;;;;6.33;3.50;;;1.60;99.90;;;;;;4991431;28;20716;-54
2021/03/17 07:59:27;;;;;;;6.33;3.07;;;1.60;99.90;;;;;;5004445;28;20243;-56
2021/03/17 08:01:55;;;;;;;10.37;3.17;;;1.70;99.90;;;;;;4995528;28;20281;-56
2021/03/17 08:04:38;;;;;;;5.20;3.33;;;1.80;99.90;;;;;;5002268;28;20201;-56
2021/03/17 08:07:05;;;;;;;8.97;3.63;;;1.80;99.90;;;;;;4997511;28;20208;-55
2021/03/17 08:09:32;;;;;;;8.43;3.03;;;1.90;99.90;;;;;;5003114;28;20197;-57
2021/03/17 08:12:02;;;;;;;4.30;2.93;;;1.90;99.90;;;;;;4998104;28;20204;-54
2021/03/17 08:14:29;;;;;;;8.27;3.13;;;1.90;99.90;;;;;;4995583;28;20934;-51
2021/03/17 08:16:55;;;;;;;9.20;3.63;;;1.90;99.90;;;;;;4994150;28;20302;-54
2021/03/17 08:19:29;;;;;;;16.87;4.57;;;2.00;99.90;;;;;;4997486;28;20225;-55
2021/03/17 08:22:01;;;;;;;8.87;3.80;;;2.10;99.90;;;;;;4996554;28;20188;-52
2021/03/17 08:24:33;;;;;;;10.03;3.07;;;2.10;99.90;;;;;;4996611;28;20190;-55
2021/03/17 08:27:15;;;;;;;4.00;2.97;;;2.20;99.90;;;;;;4988720;28;20195;-54
2021/03/17 08:29:46;;;;;;;5.60;3.97;;;2.20;99.90;;;;;;4995831;28;20188;-53
2021/03/17 08:32:14;;;;;;;6.60;3.63;;;2.30;99.90;;;;;;4985111;28;20229;-56
2021/03/17 08:34:50;;;;;;;12.30;4.27;;;2.40;99.90;;;;;;4996232;28;20199;-57
2021/03/17 08:37:16;;;;;;;10.17;3.63;;;2.40;99.90;;;;;;5002621;28;20212;-57
2021/03/17 08:39:44;;;;;;;7.33;3.20;;;2.50;99.90;;;;;;5004884;28;20215;-55
2021/03/17 08:42:27;;;;;;;8.60;4.10;;;2.50;99.90;;;;;;5005077;28;20300;-57
2021/03/17 08:44:55;;;;;;;8.23;3.43;;;2.60;99.90;;;;;;5006563;28;20246;-55
2021/03/17 08:47:20;;;;;;;8.63;3.50;;;2.60;99.90;;;;;;5004249;28;20212;-56
2021/03/17 08:49:51;;;;;;;7.13;3.90;;;2.70;99.90;;;;;;4995404;28;20652;-57
2021/03/17 08:52:36;;;;;;;8.37;4.27;;;2.70;99.90;;;;;;4994580;28;20188;-57
2021/03/17 08:55:24;;;;;;;8.07;4.23;;;2.80;99.90;;;;;;5003672;28;20277;-54
2021/03/17 08:57:55;;;;;;;13.53;4.10;;;2.80;99.90;;;;;;4988503;28;20216;-55
2021/03/17 09:00:39;;;;;;;9.70;4.73;;;2.80;99.90;;;;;;4990213;28;20192;-53
2021/03/17 09:03:05;;;;;;;12.83;4.90;;;2.80;99.90;;;;;;4985912;28;20169;-56
2021/03/17 09:05:32;;;;;;;10.87;4.80;;;2.80;99.90;;;;;;4989074;28;20172;-53
2021/03/17 09:08:09;;;;;;;11.77;5.17;;;2.90;99.90;;;;;;5001890;28;20208;-57
2021/03/17 09:10:41;;;;;;;10.40;4.83;;;2.90;99.90;;;;;;4996180;28;20200;-56
2021/03/17 09:13:06;;;;;;;12.43;4.97;;;3.00;99.90;;;;;;5007255;28;20191;-55
2021/03/17 09:15:46;;;;;;;11.57;4.80;;;3.10;99.90;;;;;;4985857;28;20211;-56
2021/03/17 09:18:13;;;;;;;12.20;4.90;;;3.20;99.90;;;;;;4987750;28;20219;-56
2021/03/17 09:20:44;;;;;;;9.73;4.77;;;3.20;99.90;;;;;;4998813;28;20203;-57
2021/03/17 09:23:22;;;;;;;12.03;5.93;;;3.40;99.90;;;;;;5002858;28;20188;-57
2021/03/17 09:25:55;;;;;;;8.20;5.50;;;3.60;99.90;;;;;;4990621;28;20196;-53
2021/03/17 09:28:27;;;;;;;13.20;5.30;;;3.70;99.90;;;;;;4998012;28;20263;-56
2021/03/17 09:31:05;;;;;;;10.93;4.60;;;3.80;99.90;;;;;;4992408;28;20196;-56
2021/03/17 09:33:33;;;;;;;6.40;4.40;;;3.90;99.90;;;;;;5000658;28;20962;-57
2021/03/17 09:36:11;;;;;;;9.93;5.43;;;3.90;99.90;;;;;;5003687;28;20189;-56
2021/03/17 09:38:42;;;;;;;6.97;4.93;;;4.00;99.90;;;;;;4989662;28;20213;-56
2021/03/17 09:41:10;;;;;;;10.90;5.17;;;4.00;99.90;;;;;;4998537;28;20188;-55
2021/03/17 09:43:42;;;;;;;9.53;5.23;;;4.00;99.90;;;;;;5002110;28;20165;-55
2021/03/17 09:46:22;;;;;;;11.60;6.23;;;4.10;99.90;;;;;;4981041;28;20205;-56
2021/03/17 09:48:50;;;;;;;13.17;5.53;;;4.20;99.90;;;;;;5018370;28;20208;-54
2021/03/17 09:51:24;;;;;;;12.03;5.97;;;4.40;99.90;;;;;;4996868;28;20197;-55
2021/03/17 09:53:51;;;;;;;11.33;5.50;;;4.40;99.90;;;;;;5004295;28;20188;-54
2021/03/17 09:56:32;;;;;;;11.47;5.57;;;4.50;99.90;;;;;;4996872;28;20244;-57
2021/03/17 09:59:18;;;;;;;11.50;5.70;;;4.60;99.90;;;;;;4984611;28;20212;-52
2021/03/17 10:02:14;;;;;;;10.13;4.73;;;4.60;99.90;;;;;;4987734;28;20181;-52
2021/03/17 10:04:45;;;;;;;10.10;5.07;;;4.70;99.90;;;;;;4990552;28;20633;-51
2021/03/17 10:07:29;;;;;;;12.13;5.33;;;4.70;99.90;;;;;;5001617;28;20199;-55
2021/03/17 10:09:56;;;;;;;7.70;5.00;;;4.70;99.90;;;;;;4984420;28;20186;-54
2021/03/17 10:12:26;;;;;;;9.53;4.87;;;4.70;99.90;;;;;;4985788;28;20197;-54
2021/03/17 10:14:57;;;;;;;15.00;5.27;;;4.80;99.90;;;;;;5003242;28;20212;-55
2021/03/17 10:17:25;;;;;;;12.93;6.10;;;4.90;99.90;;;;;;4981451;28;20690;-57
2021/03/17 10:20:12;;;;;;;7.57;5.13;;;5.00;99.90;;;;;;4995288;28;20231;-55
2021/03/17 10:22:39;;;;;;;11.47;5.80;;;5.10;99.90;;;;;;4997095;28;20240;-55
2021/03/17 10:25:19;;;;;;;11.53;5.00;;;5.10;99.90;;;;;;4997718;28;20279;-56
2021/03/17 10:27:51;;;;;;;7.97;4.83;;;5.10;99.90;;;;;;4995423;28;20310;-55
2021/03/17 10:30:18;;;;;;;9.27;4.47;;;5.20;99.90;;;;;;5000895;28;20685;-55
2021/03/17 10:32:48;;;;;;;9.47;5.30;;;5.30;99.90;;;;;;4991313;28;20196;-54
2021/03/17 10:35:16;;;;;;;9.53;4.20;;;5.40;99.90;;;;;;4985521;28;20180;-56
2021/03/17 10:37:42;;;;;;;8.97;4.20;;;5.50;99.90;;;;;;4990059;28;20220;-55
2021/03/17 10:40:11;;;;;;;6.40;4.67;;;5.50;99.90;;;;;;4991981;28;20590;-55
2021/03/17 10:42:48;;;;;;;9.63;5.60;;;5.60;99.90;;;;;;4994655;28;20203;-54
2021/03/17 10:45:18;;;;;;;12.93;5.40;;;5.60;99.90;;;;;;4997301;28;20188;-55
2021/03/17 10:47:45;;;;;;;10.33;5.53;;;5.60;99.90;;;;;;5002340;28;20192;-51
2021/03/17 10:50:26;;;;;;;8.10;5.13;;;5.80;99.90;;;;;;4981137;28;20798;-55
2021/03/17 10:52:52;;;;;;;8.20;5.20;;;5.90;99.90;;;;;;4997239;28;20711;-56
2021/03/17 10:55:28;;;;;;;6.87;4.90;;;6.00;99.90;;;;;;4992146;28;20184;-49
2021/03/17 10:58:16;;;;;;;7.77;5.10;;;6.20;99.90;;;;;;4989749;28;20216;-56
2021/03/17 11:00:47;;;;;;;5.30;4.57;;;6.30;99.90;;;;;;5007290;28;20199;-54
2021/03/17 11:03:30;;;;;;;9.70;5.17;;;6.30;99.90;;;;;;4992727;28;20196;-54
2021/03/17 11:06:13;;;;;;;7.77;5.30;;;6.30;99.90;;;;;;4981867;28;20189;-55
2021/03/17 11:08:40;;;;;;;9.37;4.53;;;6.30;99.90;;;;;;5000827;28;20192;-54
2021/03/17 11:11:07;;;;;;;10.87;5.07;;;6.40;99.90;;;;;;4995483;28;20682;-56
2021/03/17 11:13:34;;;;;;;11.93;4.90;;;6.50;99.90;;;;;;4996068;28;20184;-56
2021/03/17 11:16:06;;;;;;;10.33;5.10;;;6.50;99.90;;;;;;4996850;28;20193;-54
2021/03/17 11:18:43;;;;;;;7.63;4.77;;;6.70;99.90;;;;;;5007248;28;20238;-55
2021/03/17 11:21:25;;;;;;;6.20;3.80;;;6.70;99.90;;;;;;4982695;28;20261;-53
2021/03/17 11:24:00;;;;;;;9.10;3.50;;;6.70;99.90;;;;;;4999581;28;20600;-54
2021/03/17 11:26:33;;;;;;;5.43;2.97;;;6.70;99.90;;;;;;4997965;28;20220;-50
2021/03/17 11:29:01;;;;;;;3.83;2.40;;;6.90;99.90;;;;;;4991979;28;20288;-51
2021/03/17 11:31:30;;;;;;;4.33;2.37;;;7.00;99.90;;;;;;4981182;28;20185;-54
2021/03/17 11:33:56;;;;;;;6.10;2.67;;;7.00;99.90;;;;;;5000102;28;20243;-53
2021/03/17 11:36:22;;;;;;;2.83;2.63;;;7.00;99.90;;;;;;4978749;28;20200;-54
2021/03/17 11:38:48;;;;;;;3.40;2.90;;;7.20;99.90;;;;;;5001326;28;20270;-58
2021/03/17 11:41:14;;;;;;;5.33;2.70;;;7.30;99.90;;;;;;5003894;28;20176;-51
2021/03/17 11:43:40;;;;;;;3.50;2.40;;;7.40;99.90;;;;;;5003414;28;20693;-53
2021/03/17 11:46:06;;;;;;;5.13;2.80;;;7.40;99.90;;;;;;4988671;28;20292;-54
2021/03/17 11:48:32;;;;;;;7.37;3.20;;;7.50;99.90;;;;;;4997397;28;20191;-51
2021/03/17 11:51:03;;;;;;;4.77;3.53;;;7.60;99.90;;;;;;4987002;28;20189;-54
2021/03/17 11:53:30;;;;;;;3.67;2.70;;;7.60;99.90;;;;;;4997303;28;20191;-55
2021/03/17 11:55:55;;;;;;;3.13;2.40;;;7.60;99.90;;;;;;4997215;28;20283;-55
2021/03/17 11:58:22;;;;;;;2.67;1.57;;;7.70;99.90;;;;;;4993952;28;20463;-53
2021/03/17 12:00:48;;;;;;;5.90;2.60;;;7.80;99.90;;;;;;4999081;28;20208;-54
2021/03/17 12:03:13;;;;;;;5.40;2.63;;;7.80;99.90;;;;;;4999882;28;20165;-51
2021/03/17 12:05:40;;;;;;;6.00;3.23;;;7.80;99.90;;;;;;5005650;28;20556;-55
2021/03/17 12:08:06;;;;;;;4.87;2.80;;;7.80;99.90;;;;;;4986724;28;20558;-55
2021/03/17 12:10:32;;;;;;;4.90;2.63;;;7.80;99.90;;;;;;5003298;28;20185;-51
2021/03/17 12:12:58;;;;;;;3.57;2.90;;;7.80;99.90;;;;;;4998447;28;20196;-52
2021/03/17 12:15:25;;;;;;;5.37;3.00;;;7.80;99.90;;;;;;4996100;28;20220;-53
2021/03/17 12:17:51;;;;;;;7.30;3.23;;;7.90;99.90;;;;;;4987288;28;20245;-53
2021/03/17 12:20:20;;;;;;;4.33;3.43;;;7.90;99.90;;;;;;4995908;28;20887;-51
2021/03/17 12:22:47;;;;;;;4.90;3.00;;;7.90;99.90;;;;;;5001327;28;20185;-52
2021/03/17 12:25:13;;;;;;;4.87;3.07;;;8.20;99.90;;;;;;4972854;28;20216;-55
2021/03/17 12:27:40;;;;;;;5.03;3.30;;;8.40;99.90;;;;;;4998545;28;20284;-55
2021/03/17 12:30:08;;;;;;;7.47;3.90;;;8.40;99.90;;;;;;4996709;28;20239;-50
2021/03/17 12:32:34;;;;;;;5.23;3.03;;;8.30;99.90;;;;;;4996637;28;20185;-50
2021/03/17 12:34:59;;;;;;;6.40;2.90;;;8.30;99.90;;;;;;4993486;28;20207;-52
2021/03/17 12:37:25;;;;;;;4.67;3.10;;;8.30;99.90;;;;;;4993690;28;20262;-51
2021/03/17 12:39:50;;;;;;;6.83;3.40;;;8.30;99.90;;;;;;4977790;28;20209;-52
2021/03/17 12:42:16;;;;;;;4.70;3.17;;;8.30;99.90;;;;;;4998868;28;20669;-54
2021/03/17 12:44:42;;;;;;;6.07;2.97;;;8.40;99.90;;;;;;4999891;28;20646;-53
2021/03/17 12:47:10;;;;;;;2.27;2.03;;;8.60;99.90;;;;;;4993026;28;20213;-53
2021/03/17 12:49:36;;;;;;;3.47;2.60;;;8.80;99.90;;;;;;4993467;28;20516;-54
2021/03/17 12:52:03;;;;;;;3.30;2.43;;;8.70;99.90;;;;;;4998594;28;20189;-54
2021/03/17 12:54:29;;;;;;;4.70;2.10;;;8.60;99.90;;;;;;4999115;28;20181;-53
2021/03/17 12:56:55;;;;;;;4.07;2.20;;;8.70;99.90;;;;;;4982260;28;20216;-54
2021/03/17 12:59:20;;;;;;;2.30;2.00;;;8.80;99.90;;;;;;5000346;28;20215;-52
2021/03/17 13:01:46;;;;;;;2.87;2.30;;;8.80;99.90;;;;;;4995621;28;20207;-55
2021/03/17 13:04:12;;;;;;;3.80;2.80;;;8.80;99.90;;;;;;4998413;28;20912;-53
2021/03/17 13:06:39;;;;;;;2.50;2.17;;;8.80;99.90;;;;;;4992685;28;20202;-56
2021/03/17 13:09:05;;;;;;;3.53;2.67;;;8.70;99.90;;;;;;4981819;28;20340;-49
2021/03/17 13:11:32;;;;;;;5.10;2.80;;;8.70;99.90;;;;;;4979855;28;20201;-51